Time;durP1;ratioP1;P1;durP2;ratioP2;P2;SDS_P1;SDS_P2;PMS_P1;PMS_P2;Temp;Humidity;BMP_temperature;BMP_pressure;BME280_temperature;BME280_humidity;BME280_pressure;Samples;Min_cycle;Max_cycle;Signal;HPM_P1;HPM_P2
2022/11/09 00:02:13;;;;;;;1.33;0.50;;;;;;;18.99;46.06;100442.19;16124878;19;129723;-42
2022/11/09 00:07:35;;;;;;;1.50;0.30;;;;;;;18.98;46.29;100434.97;16119930;19;129683;-43
2022/11/09 00:12:57;;;;;;;2.70;0.50;;;;;;;18.97;45.80;100438.03;16122642;19;130400;-40
2022/11/09 00:18:18;;;;;;;2.40;0.70;;;;;;;18.96;45.86;100441.88;16121850;19;129748;-41
2022/11/09 00:23:40;;;;;;;1.38;0.40;;;;;;;18.95;45.92;100446.59;16119506;19;130410;-45
2022/11/09 00:29:02;;;;;;;1.13;0.40;;;;;;;18.91;45.82;100439.91;16122994;19;131426;-42
2022/11/09 00:34:24;;;;;;;3.97;0.80;;;;;;;18.90;46.19;100432.69;16138329;19;129512;-39
2022/11/09 00:39:45;;;;;;;2.53;0.50;;;;;;;18.89;46.19;100436.53;16135926;19;129504;-42
2022/11/09 00:45:07;;;;;;;2.00;0.50;;;;;;;18.87;45.87;100439.59;16132941;19;130156;-43
2022/11/09 00:50:29;;;;;;;1.77;0.60;;;;;;;18.86;46.23;100442.59;16134894;19;129977;-42
2022/11/09 00:56:03;;;;;;;1.38;0.50;;;;;;;18.87;46.08;100444.28;16130904;19;131885;-42
2022/11/09 01:01:25;;;;;;;1.23;0.50;;;;;;;18.84;45.87;100439.25;16131308;19;129630;-42
2022/11/09 01:06:47;;;;;;;1.10;0.40;;;;;;;18.82;45.96;100445.06;16130991;19;130085;-43
2022/11/09 01:12:08;;;;;;;3.90;0.47;;;;;;;18.81;45.87;100451.69;16131411;19;130276;-43
2022/11/09 01:17:30;;;;;;;0.70;0.30;;;;;;;18.80;46.07;100463.06;16131038;19;129763;-42
2022/11/09 01:22:53;;;;;;;4.30;0.45;;;;;;;18.80;45.83;100463.06;16131376;19;129831;-42
2022/11/09 01:28:15;;;;;;;2.78;0.63;;;;;;;18.78;45.70;100457.75;16130212;19;129661;-41
2022/11/09 01:33:37;;;;;;;2.63;0.50;;;;;;;18.77;46.19;100447.75;16129385;19;129429;-40
2022/11/09 01:38:59;;;;;;;2.80;0.50;;;;;;;18.76;46.12;100465.50;16130358;19;130306;-40
2022/11/09 01:44:21;;;;;;;1.77;0.60;;;;;;;18.75;45.73;100453.56;16128079;19;129497;-41
2022/11/09 01:49:53;;;;;;;1.23;0.55;;;;;;;18.74;45.96;100468.50;16128227;19;130070;-42
2022/11/09 01:55:20;;;;;;;1.25;0.35;;;;;;;18.73;45.79;100469.59;16128418;19;130271;-41
2022/11/09 02:00:45;;;;;;;2.33;0.55;;;;;;;18.74;46.00;100467.69;16126115;19;130546;-42
2022/11/09 02:06:10;;;;;;;4.90;0.60;;;;;;;18.71;45.87;100488.41;16128777;19;129613;-42
2022/11/09 02:11:35;;;;;;;1.13;0.50;;;;;;;18.71;45.66;100495.91;16128528;19;130279;-43
2022/11/09 02:16:57;;;;;;;1.15;0.40;;;;;;;18.69;45.77;100471.25;16128842;19;134305;-40
2022/11/09 02:22:19;;;;;;;1.27;0.45;;;;;;;18.69;45.84;100476.78;16128275;19;129570;-42
2022/11/09 02:27:42;;;;;;;3.60;0.60;;;;;;;18.69;46.03;100459.31;16124611;19;129415;-43
2022/11/09 02:33:04;;;;;;;0.63;0.35;;;;;;;18.67;46.03;100445.72;16124673;19;129589;-42
2022/11/09 02:38:26;;;;;;;3.88;0.57;;;;;;;18.68;45.67;100433.53;16127470;19;129736;-42
2022/11/09 02:43:50;;;;;;;1.63;0.40;;;;;;;18.67;46.13;100455.94;16129125;19;130357;-43
2022/11/09 02:49:12;;;;;;;1.52;0.40;;;;;;;18.66;46.09;100468.13;16128311;19;129225;-43
2022/11/09 02:54:34;;;;;;;2.22;0.50;;;;;;;18.66;45.66;100471.75;16124062;19;129205;-42
2022/11/09 02:59:56;;;;;;;1.10;0.40;;;;;;;18.65;45.92;100469.22;16126378;19;129414;-39
2022/11/09 03:05:18;;;;;;;0.80;0.45;;;;;;;18.65;46.02;100483.94;16123241;19;130426;-43
2022/11/09 03:10:39;;;;;;;1.52;0.40;;;;;;;18.64;45.62;100485.03;16125488;19;129478;-42
2022/11/09 03:16:06;;;;;;;1.40;0.50;;;;;;;18.64;45.58;100493.34;16127210;19;131009;-42
2022/11/09 03:21:28;;;;;;;1.38;0.40;;;;;;;18.63;45.51;100491.66;16123983;19;129682;-42
2022/11/09 03:26:49;;;;;;;1.85;0.73;;;;;;;18.61;45.90;100496.59;16123792;19;131031;-42
2022/11/09 03:32:11;;;;;;;1.50;0.40;;;;;;;18.61;45.55;100508.53;16120675;19;131026;-43
2022/11/09 03:37:33;;;;;;;1.65;0.50;;;;;;;18.60;45.98;100522.63;16120864;19;130787;-41
2022/11/09 03:42:55;;;;;;;1.33;0.70;;;;;;;18.60;45.95;100526.25;16123770;19;129579;-41
2022/11/09 03:48:17;;;;;;;3.28;0.63;;;;;;;18.58;45.65;100520.13;16122109;19;130551;-42
2022/11/09 03:53:38;;;;;;;0.95;0.50;;;;;;;18.57;45.82;100526.75;16125410;19;129425;-42
2022/11/09 03:59:00;;;;;;;2.15;0.45;;;;;;;18.56;45.97;100538.94;16123595;19;130094;-42
2022/11/09 04:04:22;;;;;;;1.88;0.75;;;;;;;18.57;45.95;100545.34;16127498;19;134136;-42
2022/11/09 04:09:44;;;;;;;2.90;0.50;;;;;;;18.56;45.70;100549.19;16134235;19;130802;-42
2022/11/09 04:15:06;;;;;;;2.17;0.50;;;;;;;18.55;45.57;100548.34;16136913;19;129802;-41
2022/11/09 04:20:29;;;;;;;1.48;0.50;;;;;;;18.55;45.54;100550.28;16137492;19;129597;-41
2022/11/09 04:25:51;;;;;;;1.00;0.40;;;;;;;18.55;45.78;100553.06;16134966;19;129666;-43
2022/11/09 04:31:13;;;;;;;4.15;0.60;;;;;;;18.54;45.76;100554.97;16136832;19;131321;-42
2022/11/09 04:36:34;;;;;;;3.90;0.55;;;;;;;18.55;45.56;100566.91;16132755;19;130242;-42
2022/11/09 04:41:56;;;;;;;1.38;0.45;;;;;;;18.53;45.91;100567.13;16135369;19;129445;-41
2022/11/09 04:47:18;;;;;;;1.92;0.60;;;;;;;18.53;45.48;100571.84;16136501;19;129677;-43
2022/11/09 04:52:39;;;;;;;1.90;0.70;;;;;;;18.52;45.84;100572.94;16136159;19;129436;-43
2022/11/09 04:58:01;;;;;;;2.70;0.60;;;;;;;18.52;45.80;100584.03;16137420;19;129381;-42
2022/11/09 05:03:23;;;;;;;0.90;0.43;;;;;;;18.50;45.72;100575.97;16133959;19;129928;-42
2022/11/09 05:08:45;;;;;;;1.08;0.50;;;;;;;18.50;45.92;100572.34;16133010;19;129122;-40
2022/11/09 05:14:07;;;;;;;0.90;0.30;;;;;;;18.50;45.74;100584.28;16132096;19;129496;-41
2022/11/09 05:19:28;;;;;;;2.50;0.60;;;;;;;18.49;46.00;100581.75;16129361;19;129957;-42
2022/11/09 05:24:50;;;;;;;1.35;0.30;;;;;;;18.48;46.05;100585.63;16132407;19;129411;-41
2022/11/09 05:30:12;;;;;;;1.40;0.40;;;;;;;18.48;45.80;100580.06;16149862;19;130011;-42
2022/11/09 05:35:34;;;;;;;1.85;0.60;;;;;;;18.48;45.72;100574.53;16145486;19;130176;-43
2022/11/09 05:40:56;;;;;;;0.38;0.30;;;;;;;18.48;45.88;100582.84;16145895;19;129489;-42
2022/11/09 05:46:18;;;;;;;2.30;0.43;;;;;;;18.48;45.73;100582.84;16140217;19;129356;-42
2022/11/09 05:51:39;;;;;;;2.08;0.60;;;;;;;18.46;45.78;100580.34;16131311;19;129574;-43
2022/11/09 05:57:01;;;;;;;2.47;0.52;;;;;;;18.45;45.68;100579.53;16132762;19;129602;-43
2022/11/09 06:02:23;;;;;;;1.52;0.50;;;;;;;18.44;45.96;100580.59;16128555;19;129632;-43
2022/11/09 06:07:45;;;;;;;0.95;0.45;;;;;;;18.46;45.92;100589.47;16127502;19;129293;-42
2022/11/09 06:13:07;;;;;;;1.17;0.52;;;;;;;18.64;45.80;100595.84;16131052;19;131050;-39
2022/11/09 06:18:30;;;;;;;0.82;0.40;;;;;;;18.86;45.57;100593.13;16125387;19;129610;-43
2022/11/09 06:23:52;;;;;;;1.73;0.40;;;;;;;19.02;45.51;100602.47;16124944;19;129635;-42
2022/11/09 06:29:13;;;;;;;3.08;0.55;;;;;;;19.13;45.55;100597.06;16126738;19;130948;-44
2022/11/09 06:34:35;;;;;;;2.97;0.47;;;;;;;19.18;45.41;100597.13;16127347;19;129837;-43
2022/11/09 06:39:57;;;;;;;1.85;0.70;;;;;;;19.18;45.34;100611.00;16124728;19;133988;-42
2022/11/09 06:45:18;;;;;;;2.10;0.40;;;;;;;19.16;45.30;100614.00;16130298;19;129250;-41
2022/11/09 06:50:40;;;;;;;1.23;0.40;;;;;;;19.13;45.58;100614.56;16126328;19;129978;-43
2022/11/09 06:56:03;;;;;;;4.80;0.80;;;;;;;19.10;45.41;100619.75;16123066;19;130496;-42
2022/11/09 07:01:27;;;;;;;4.82;0.75;;;;;;;19.05;45.16;100624.16;16126394;19;130118;-42
2022/11/09 07:06:49;;;;;;;1.60;0.40;;;;;;;19.03;45.52;100628.25;16123864;19;129521;-42
2022/11/09 07:12:11;;;;;;;3.00;0.80;;;;;;;19.02;45.37;100624.66;16122401;19;129460;-41
2022/11/09 07:17:33;;;;;;;2.20;0.60;;;;;;;19.15;45.50;100636.47;16124814;19;129982;-43
2022/11/09 07:22:55;;;;;;;2.25;0.50;;;;;;;19.31;45.12;100632.84;16124049;19;129538;-41
2022/11/09 07:28:17;;;;;;;7.30;0.60;;;;;;;19.25;45.03;100638.56;16117956;19;132601;-43
2022/11/09 07:33:39;;;;;;;5.35;0.80;;;;;;;19.28;44.99;100641.66;16120863;19;129140;-42
2022/11/09 07:39:00;;;;;;;1.73;0.50;;;;;;;19.62;44.33;100637.91;16123882;19;129366;-42
2022/11/09 07:44:22;;;;;;;3.30;0.43;;;;;;;19.69;44.39;100652.41;16122961;19;134961;-44
2022/11/09 07:49:44;;;;;;;2.53;0.60;;;;;;;19.67;44.27;100647.13;16119696;19;129911;-40
2022/11/09 07:55:06;;;;;;;2.17;0.52;;;;;;;19.75;44.09;100656.06;16121418;19;129850;-43
2022/11/09 08:00:30;;;;;;;3.97;0.50;;;;;;;19.79;43.72;100660.03;16119902;19;129614;-41
2022/11/09 08:05:52;;;;;;;2.35;0.63;;;;;;;19.65;43.86;100665.13;16121739;19;129950;-42
2022/11/09 08:11:14;;;;;;;4.93;0.70;;;;;;;19.50;44.30;100669.41;16120239;19;129491;-42
2022/11/09 08:16:35;;;;;;;2.05;0.68;;;;;;;19.84;43.68;100669.25;16118774;19;131110;-41
2022/11/09 08:21:59;;;;;;;6.57;0.82;;;;;;;20.27;42.98;100679.66;16120994;19;128983;-42
2022/11/09 08:27:21;;;;;;;4.15;0.90;;;;;;;19.93;43.42;100694.59;16119677;19;129803;-41
2022/11/09 08:32:43;;;;;;;8.48;1.25;;;;;;;19.69;43.44;100696.81;16117640;19;129752;-42
2022/11/09 08:38:05;;;;;;;8.13;1.02;;;;;;;19.52;43.88;100689.38;16118382;19;129264;-41
2022/11/09 08:43:27;;;;;;;5.63;1.10;;;;;;;19.42;43.86;100702.31;16115733;19;129560;-42
2022/11/09 08:48:49;;;;;;;11.30;1.48;;;;;;;19.32;44.04;100701.06;16116856;19;129444;-40
2022/11/09 08:54:12;;;;;;;8.32;1.17;;;;;;;19.26;44.29;100701.28;16127668;19;130853;-37
2022/11/09 08:59:34;;;;;;;8.98;1.13;;;;;;;19.19;44.15;100701.41;16132302;19;129588;-38
2022/11/09 09:04:56;;;;;;;6.32;1.38;;;;;;;19.14;44.13;100704.94;16134133;19;129661;-40
2022/11/09 09:10:18;;;;;;;2.83;0.80;;;;;;;19.10;44.27;100708.47;16131469;19;129710;-42
2022/11/09 09:15:40;;;;;;;4.60;1.17;;;;;;;19.06;44.05;100711.78;16129539;19;130968;-41
2022/11/09 09:21:05;;;;;;;9.43;1.02;;;;;;;19.02;44.09;100716.16;16131553;19;129553;-41
2022/11/09 09:26:27;;;;;;;;;;;;;;;18.97;44.35;100723.53;16131308;19;129149;-43
2022/11/09 09:31:49;;;;;;;8.23;1.50;;;;;;;18.94;44.40;100722.13;16127857;19;129481;-41
2022/11/09 09:37:11;;;;;;;6.53;1.00;;;;;;;18.88;43.72;100718.44;16128296;19;129658;-41
2022/11/09 09:42:42;;;;;;;10.85;1.58;;;;;;;18.86;44.00;100720.63;16127168;19;130283;-42
2022/11/09 09:48:15;;;;;;;12.43;1.63;;;;;;;18.85;43.95;100734.72;16125329;19;129889;-42
2022/11/09 09:53:43;;;;;;;6.30;1.10;;;;;;;18.84;43.86;100746.88;16128520;19;131173;-40
2022/11/09 09:59:30;;;;;;;4.90;1.25;;;;;;;18.83;43.91;100761.88;16128831;19;129690;-41
2022/11/09 10:04:56;;;;;;;10.05;1.88;;;;;;;18.82;44.10;100747.16;16127892;19;129634;-42
2022/11/09 10:10:54;;;;;;;10.38;2.38;;;;;;;18.84;43.84;100749.66;16131305;19;129539;-40
2022/11/09 10:16:44;;;;;;;11.45;1.42;;;;;;;18.85;43.74;100770.75;16129846;19;129495;-42
2022/11/09 10:22:27;;;;;;;9.25;1.80;;;;;;;18.84;44.07;100785.69;16127689;19;131531;-39
2022/11/09 10:28:01;;;;;;;12.73;1.58;;;;;;;18.85;44.37;100799.31;16125789;19;129649;-44
2022/11/09 10:33:27;;;;;;;9.20;1.75;;;;;;;18.83;44.23;100808.97;16128051;19;129732;-40
2022/11/09 10:38:51;;;;;;;8.90;1.50;;;;;;;18.80;44.32;100826.09;16123950;19;129622;-41
2022/11/09 10:44:17;;;;;;;8.45;1.90;;;;;;;18.78;44.47;100823.56;16127808;19;129325;-42
2022/11/09 10:49:39;;;;;;;6.93;1.58;;;;;;;18.75;44.40;100824.91;16125122;19;129151;-42
2022/11/09 10:55:25;;;;;;;12.35;1.40;;;;;;;18.76;44.15;100821.06;16129021;19;130030;-42
2022/11/09 11:01:08;;;;;;;7.32;1.17;;;;;;;18.73;44.33;100827.09;16128887;19;129557;-42
2022/11/09 11:06:30;;;;;;;9.07;1.38;;;;;;;18.71;44.69;100831.22;16124621;19;129151;-41
2022/11/09 11:12:14;;;;;;;7.50;1.25;;;;;;;18.70;44.28;100827.59;16126025;19;129736;-41
2022/11/09 11:17:36;;;;;;;4.07;1.10;;;;;;;18.68;44.27;100818.69;16125351;19;129471;-42
2022/11/09 11:23:18;;;;;;;5.18;0.80;;;;;;;18.69;44.34;100819.53;16124973;19;130619;-42
2022/11/09 11:28:47;;;;;;;6.15;1.27;;;;;;;18.69;44.57;100823.16;16126261;19;131353;-43
2022/11/09 11:34:14;;;;;;;8.80;1.38;;;;;;;18.70;44.50;100826.75;16122618;19;129350;-48
2022/11/09 11:40:05;;;;;;;7.28;1.08;;;;;;;18.68;44.79;100827.00;16122842;19;129109;-34
2022/11/09 11:45:31;;;;;;;6.35;0.85;;;;;;;18.68;44.68;100824.25;16123263;19;130369;-35
2022/11/09 11:51:32;;;;;;;3.43;1.07;;;;;;;18.68;44.71;100829.78;16127334;19;130532;-33
2022/11/09 11:57:09;;;;;;;3.17;0.77;;;;;;;18.67;44.58;100822.56;16121084;19;130251;-36
2022/11/09 12:02:43;;;;;;;2.92;0.93;;;;;;;18.66;45.06;100825.56;16109839;19;129512;-38
2022/11/09 12:08:38;;;;;;;4.18;1.00;;;;;;;18.68;44.58;100834.47;16114158;19;129249;-35
2022/11/09 12:14:11;;;;;;;2.63;0.60;;;;;;;18.65;44.60;100827.50;16117550;19;129826;-37
2022/11/09 12:19:47;;;;;;;4.22;0.60;;;;;;;18.67;44.62;100839.19;16118563;19;130098;-37
2022/11/09 12:25:23;;;;;;;2.78;0.90;;;;;;;18.68;44.74;100845.56;16123458;19;130028;-40
2022/11/09 12:30:55;;;;;;;5.30;0.70;;;;;;;18.66;44.87;100847.72;16135200;19;129427;-38
2022/11/09 12:36:24;;;;;;;3.75;0.57;;;;;;;18.65;44.78;100852.44;16136226;19;129530;-38
2022/11/09 12:41:48;;;;;;;4.80;0.80;;;;;;;18.63;44.91;100853.78;16133484;19;130406;-37
2022/11/09 12:47:19;;;;;;;10.13;1.42;;;;;;;18.61;44.80;100848.47;16134346;19;129404;-37
2022/11/09 12:52:42;;;;;;;4.78;1.00;;;;;;;18.56;44.83;100865.84;16136540;19;129681;-40
2022/11/09 12:58:04;;;;;;;9.02;1.20;;;;;;;18.55;44.82;100857.78;16134166;19;130837;-36
2022/11/09 13:03:31;;;;;;;8.23;1.45;;;;;;;18.56;44.65;100865.03;16133060;19;129508;-38
2022/11/09 13:09:01;;;;;;;9.82;1.52;;;;;;;18.54;44.24;100864.41;16132313;19;129609;-38
2022/11/09 13:14:29;;;;;;;12.18;1.75;;;;;;;18.52;44.67;100877.66;16130218;19;130079;-34
2022/11/09 13:19:55;;;;;;;9.15;1.23;;;;;;;18.54;44.55;100889.34;16127881;19;129433;-34
2022/11/09 13:25:43;;;;;;;6.75;0.93;;;;;;;18.54;44.18;100890.19;16130654;19;136928;-34
2022/11/09 13:31:08;;;;;;;6.72;1.10;;;;;;;18.53;44.45;100901.53;16130732;19;129179;-35
2022/11/09 13:36:30;;;;;;;4.15;0.93;;;;;;;18.52;44.51;100897.06;16129456;19;129459;-33
2022/11/09 13:41:52;;;;;;;5.82;1.38;;;;;;;18.52;44.36;100899.84;16130484;19;131488;-33
2022/11/09 13:47:31;;;;;;;7.10;1.20;;;;;;;18.54;44.71;100900.44;16131987;19;130077;-33
2022/11/09 13:52:57;;;;;;;3.85;0.88;;;;;;;18.52;44.65;100902.59;16132207;19;129869;-33
2022/11/09 13:58:36;;;;;;;7.07;1.00;;;;;;;18.52;44.42;100902.59;16129995;19;129706;-33
2022/11/09 14:04:00;;;;;;;3.70;0.70;;;;;;;18.50;44.65;100911.19;16129937;19;128979;-32
2022/11/09 14:09:21;;;;;;;3.45;0.80;;;;;;;18.50;44.73;100922.25;16129470;19;130550;-33
2022/11/09 14:15:05;;;;;;;3.58;0.75;;;;;;;18.53;44.79;100937.53;16128524;19;129465;-33
2022/11/09 14:20:33;;;;;;;5.53;0.77;;;;;;;18.52;44.58;100941.38;16127328;19;130135;-33
2022/11/09 14:25:55;;;;;;;1.73;0.52;;;;;;;18.51;44.64;100940.56;16125687;19;129784;-32
2022/11/09 14:31:29;;;;;;;4.20;0.60;;;;;;;18.54;45.00;100939.22;16124814;19;131840;-32
2022/11/09 14:36:51;;;;;;;4.45;0.57;;;;;;;18.51;44.94;100943.34;16123732;19;131246;-33
2022/11/09 14:42:18;;;;;;;9.63;0.77;;;;;;;18.54;44.70;100944.75;16124287;19;129700;-33
2022/11/09 14:47:44;;;;;;;2.53;0.50;;;;;;;18.53;45.05;100948.63;16123320;19;129510;-32
2022/11/09 14:53:12;;;;;;;0.93;0.40;;;;;;;18.53;44.78;100951.38;16125685;19;130052;-32
2022/11/09 14:58:39;;;;;;;3.33;0.68;;;;;;;18.53;44.84;100954.16;16125131;19;130240;-32
2022/11/09 15:04:08;;;;;;;2.17;0.50;;;;;;;18.53;44.63;100956.94;16126071;19;130541;-32
2022/11/09 15:09:41;;;;;;;2.47;0.55;;;;;;;18.54;44.75;100972.47;16124402;19;129735;-33
2022/11/09 15:15:05;;;;;;;1.58;0.50;;;;;;;18.52;44.90;100974.63;16125042;19;129475;-32
2022/11/09 15:20:31;;;;;;;4.32;0.73;;;;;;;18.52;44.67;100986.56;16123760;19;129623;-32
2022/11/09 15:25:55;;;;;;;3.72;0.75;;;;;;;18.53;44.31;100995.72;16125358;19;129694;-32
2022/11/09 15:31:18;;;;;;;20.00;1.70;;;;;;;18.56;44.30;101001.59;16126244;19;130932;-32
2022/11/09 15:36:40;;;;;;;21.55;2.45;;;;;;;18.61;43.86;101014.72;16123757;19;130306;-32
2022/11/09 15:42:10;;;;;;;12.27;1.95;;;;;;;18.64;43.63;101011.47;16122907;19;131010;-33
2022/11/09 15:47:36;;;;;;;12.57;1.58;;;;;;;18.67;43.78;101019.31;16123240;19;131393;-33
2022/11/09 15:52:58;;;;;;;17.13;1.92;;;;;;;18.69;43.31;101028.22;16124225;19;129618;-33
2022/11/09 15:58:20;;;;;;;15.68;1.77;;;;;;;18.74;43.35;101030.25;16126171;19;129702;-33
2022/11/09 16:03:42;;;;;;;8.95;1.38;;;;;;;18.77;43.59;101041.69;16120163;19;130684;-33
2022/11/09 16:09:04;;;;;;;10.95;1.80;;;;;;;18.81;43.71;101055.88;16121115;19;129431;-33
2022/11/09 16:14:30;;;;;;;12.45;1.95;;;;;;;18.84;43.53;101062.88;16120215;19;129314;-33
2022/11/09 16:19:52;;;;;;;8.88;1.38;;;;;;;18.84;43.82;101062.88;16119947;19;129550;-33
2022/11/09 16:25:14;;;;;;;5.63;1.17;;;;;;;18.84;43.40;101082.28;16117413;19;129980;-33
2022/11/09 16:30:35;;;;;;;8.80;1.65;;;;;;;18.85;43.70;101089.50;16117344;19;128950;-33
2022/11/09 16:36:01;;;;;;;9.40;1.75;;;;;;;18.87;43.75;101098.41;16119390;19;130031;-43
2022/11/09 16:41:23;;;;;;;;;;;;;;;18.86;43.52;101102.28;16116165;19;129755;-41
2022/11/09 16:46:46;;;;;;;8.52;1.42;;;;;;;18.89;44.01;101113.72;16120444;19;129593;-41
2022/11/09 16:52:08;;;;;;;9.75;1.55;;;;;;;18.87;43.66;101121.47;16116718;19;129024;-40
2022/11/09 16:57:30;;;;;;;6.28;1.08;;;;;;;18.82;43.79;101126.88;16117434;19;131092;-41
2022/11/09 17:02:52;;;;;;;4.90;1.08;;;;;;;18.77;44.11;101143.38;16116629;19;129552;-41
2022/11/09 17:08:14;;;;;;;5.97;1.30;;;;;;;18.72;44.16;101155.19;16115278;19;130339;-41
2022/11/09 17:13:36;;;;;;;6.68;1.00;;;;;;;18.69;44.36;101172.31;16127542;19;129622;-41
2022/11/09 17:18:58;;;;;;;7.05;1.50;;;;;;;18.67;44.14;101180.03;16134471;19;130480;-41
2022/11/09 17:24:20;;;;;;;4.82;0.98;;;;;;;18.64;44.56;101205.44;16131619;19;129588;-41
2022/11/09 17:29:42;;;;;;;4.47;1.20;;;;;;;18.62;44.53;101213.16;16128543;19;129463;-40
2022/11/09 17:35:04;;;;;;;4.57;1.17;;;;;;;18.59;44.57;101210.84;16128495;19;129534;-41
2022/11/09 17:40:26;;;;;;;7.82;1.00;;;;;;;18.60;44.77;101224.47;16129222;19;129683;-41
2022/11/09 17:45:48;;;;;;;12.00;1.45;;;;;;;18.67;44.79;101232.69;16127235;19;130970;-41
2022/11/09 17:51:11;;;;;;;18.40;1.48;;;;;;;18.78;44.68;101242.06;16128057;19;130445;-40
2022/11/09 17:56:33;;;;;;;8.30;0.95;;;;;;;18.90;45.11;101250.41;16127838;19;129846;-42
2022/11/09 18:01:55;;;;;;;7.43;1.38;;;;;;;19.05;44.91;101261.03;16128942;19;129482;-42
2022/11/09 18:07:17;;;;;;;18.17;1.48;;;;;;;19.19;44.98;101261.63;16128287;19;135088;-42
2022/11/09 18:12:39;;;;;;;5.43;0.93;;;;;;;19.30;44.71;101269.13;16130453;19;129737;-41
2022/11/09 18:18:00;;;;;;;16.35;1.40;;;;;;;19.35;44.52;101272.00;16131315;19;129938;-43
2022/11/09 18:23:23;;;;;;;10.70;0.90;;;;;;;19.37;44.53;101286.47;16129337;19;130964;-43
2022/11/09 18:28:45;;;;;;;20.05;1.40;;;;;;;19.36;44.69;101289.50;16128075;19;129390;-44
2022/11/09 18:34:06;;;;;;;5.55;0.77;;;;;;;19.41;45.00;101299.88;16129134;19;129523;-43
2022/11/09 18:39:28;;;;;;;11.68;1.30;;;;;;;19.44;44.98;101307.72;16129604;19;129770;-43
2022/11/09 18:44:50;;;;;;;14.05;1.23;;;;;;;19.46;45.00;101311.94;16126128;19;129469;-43
2022/11/09 18:50:12;;;;;;;12.95;1.33;;;;;;;19.58;45.20;101309.13;16128621;19;129690;-43
2022/11/09 18:55:33;;;;;;;11.13;0.98;;;;;;;19.74;46.26;101317.81;16127675;19;129629;-43
2022/11/09 19:01:04;;;;;;;9.98;1.05;;;;;;;19.87;47.32;101325.03;16126918;19;130367;-43
2022/11/09 19:06:26;;;;;;;13.55;1.45;;;;;;;19.95;47.53;101335.75;16123109;19;129322;-43
2022/11/09 19:11:48;;;;;;;11.25;1.00;;;;;;;20.03;48.26;101331.78;16121318;19;129723;-43
2022/11/09 19:17:13;;;;;;;6.22;1.13;;;;;;;20.10;48.21;101346.34;16125574;19;130954;-42
2022/11/09 19:22:35;;;;;;;18.40;0.82;;;;;;;20.12;49.01;101355.28;16123749;19;131124;-43
2022/11/09 19:27:57;;;;;;;14.52;1.13;;;;;;;20.09;49.16;101358.56;16125123;19;130585;-42
2022/11/09 19:33:19;;;;;;;7.50;1.30;;;;;;;20.07;49.48;101369.06;16125938;19;129105;-43
2022/11/09 19:38:43;;;;;;;9.32;1.10;;;;;;;20.02;49.92;101374.53;16123573;19;129792;-43
2022/11/09 19:44:06;;;;;;;9.95;1.15;;;;;;;19.95;50.16;101375.47;16122032;19;129360;-43
2022/11/09 19:49:28;;;;;;;2.92;0.77;;;;;;;19.89;50.26;101387.56;16120160;19;129407;-43
2022/11/09 19:54:50;;;;;;;6.80;0.60;;;;;;;19.84;50.19;101401.31;16124129;19;129541;-43
2022/11/09 20:00:12;;;;;;;7.20;1.08;;;;;;;19.79;50.36;101406.75;16124030;19;129595;-43
2022/11/09 20:05:34;;;;;;;8.80;1.10;;;;;;;19.75;50.61;101411.09;16119279;19;129578;-43
2022/11/09 20:11:06;;;;;;;6.20;0.82;;;;;;;19.73;50.85;101411.34;16122235;19;129540;-42
2022/11/09 20:16:28;;;;;;;9.18;0.82;;;;;;;19.68;50.32;101425.97;16115694;19;130451;-41
2022/11/09 20:21:50;;;;;;;9.88;0.93;;;;;;;19.65;50.49;101437.53;16114308;19;129993;-44
2022/11/09 20:27:11;;;;;;;9.00;0.80;;;;;;;19.61;50.44;101450.19;16119275;19;131417;-42
2022/11/09 20:32:33;;;;;;;8.50;1.08;;;;;;;19.57;50.39;101457.31;16116234;19;131463;-43
2022/11/09 20:37:55;;;;;;;5.85;0.63;;;;;;;19.54;50.32;101474.47;16120062;19;129760;-43
2022/11/09 20:43:16;;;;;;;5.18;0.70;;;;;;;19.52;50.59;101482.19;16119051;19;130343;-42
2022/11/09 20:48:38;;;;;;;5.32;0.45;;;;;;;19.48;51.33;101486.50;16125290;19;129368;-43
2022/11/09 20:54:15;;;;;;;1.90;0.45;;;;;;;19.63;51.16;101494.38;16132697;19;129494;-43
2022/11/09 20:59:37;;;;;;;5.55;0.65;;;;;;;19.93;50.96;101505.41;16132332;19;130570;-43
2022/11/09 21:05:00;;;;;;;4.15;0.60;;;;;;;20.32;50.80;101515.16;16130900;19;129705;-42
2022/11/09 21:10:21;;;;;;;17.50;0.90;;;;;;;20.55;49.90;101528.19;16133801;19;130537;-43
2022/11/09 21:15:43;;;;;;;5.15;0.80;;;;;;;20.68;49.63;101521.50;16130368;19;129441;-42
2022/11/09 21:21:11;;;;;;;7.65;0.98;;;;;;;20.73;49.33;101518.84;16120454;19;129661;-43
2022/11/09 21:32:14;;;;;;;8.88;1.13;;;;;;;20.56;49.55;101524.31;16128254;19;129005;-43
2022/11/09 21:37:36;;;;;;;4.95;0.70;;;;;;;20.47;49.53;101523.03;16133465;19;129896;-43
2022/11/09 21:42:57;;;;;;;7.60;0.80;;;;;;;20.37;49.49;101521.69;16131759;19;129291;-40
2022/11/09 21:48:19;;;;;;;3.03;0.80;;;;;;;20.27;49.68;101525.09;16129793;19;129638;-40
2022/11/09 21:53:41;;;;;;;6.07;0.70;;;;;;;20.19;49.94;101533.78;16128430;19;129558;-42
2022/11/09 21:59:03;;;;;;;4.30;0.65;;;;;;;20.11;50.09;101539.72;16128733;19;129302;-41
2022/11/09 22:04:25;;;;;;;1.98;0.60;;;;;;;20.04;50.00;101539.81;16126897;19;130118;-40
2022/11/09 22:09:50;;;;;;;3.72;0.55;;;;;;;19.98;49.89;101551.88;16126035;19;129962;-41
2022/11/09 22:21:10;;;;;;;3.08;0.57;;;;;;;19.84;50.18;101579.00;16129805;19;129757;-40
2022/11/09 22:26:32;;;;;;;6.45;0.60;;;;;;;19.78;50.16;101588.31;16126971;19;131332;-41
2022/11/09 22:31:54;;;;;;;1.40;0.40;;;;;;;19.72;49.94;101581.78;16130705;19;130016;-40
2022/11/09 22:37:15;;;;;;;3.17;0.75;;;;;;;19.64;49.95;101587.66;16129444;19;130589;-41
2022/11/09 22:42:37;;;;;;;3.83;0.60;;;;;;;19.55;50.33;101592.72;16129317;19;131096;-42
2022/11/09 22:47:59;;;;;;;2.15;0.60;;;;;;;19.50;50.09;101600.91;16127577;19;129105;-40
2022/11/09 22:53:20;;;;;;;5.05;0.68;;;;;;;19.45;50.31;101601.59;16124362;19;129178;-41
2022/11/09 22:58:46;;;;;;;1.90;0.60;;;;;;;19.42;50.26;101609.56;16125676;19;129355;-42
2022/11/09 23:04:09;;;;;;;2.38;0.47;;;;;;;19.37;50.35;101608.31;16124586;19;129560;-41
2022/11/09 23:09:31;;;;;;;3.28;0.52;;;;;;;19.33;50.13;101622.91;16123644;19;129980;-39
2022/11/09 23:15:12;;;;;;;3.75;0.70;;;;;;;19.27;50.30;101635.78;16125887;19;130287;-40
2022/11/09 23:20:33;;;;;;;2.88;0.80;;;;;;;19.23;50.17;101640.09;16124313;19;129649;-41
2022/11/09 23:25:56;;;;;;;2.13;0.73;;;;;;;19.21;50.20;101637.56;16118318;19;129856;-39
2022/11/09 23:31:23;;;;;;;2.50;0.60;;;;;;;19.19;50.31;101649.94;16115391;19;129638;-40
2022/11/09 23:36:44;;;;;;;1.60;0.45;;;;;;;19.17;50.14;101664.03;16112795;19;129659;-41
2022/11/09 23:42:06;;;;;;;1.65;0.50;;;;;;;19.14;50.16;101669.19;16119738;19;130684;-43
2022/11/09 23:47:28;;;;;;;1.45;0.40;;;;;;;19.12;50.43;101661.13;16122709;19;129659;-41
2022/11/09 23:52:50;;;;;;;2.03;0.50;;;;;;;19.11;50.44;101675.22;16123269;19;129638;-43
2022/11/09 23:58:12;;;;;;;2.50;0.50;;;;;;;19.08;50.27;101691.22;16123774;19;129673;-41
